createdAt,value
2023-01-12T00:01:38.655Z,99053.47
2023-01-12T00:04:06.103Z,99068.09
2023-01-12T00:06:33.397Z,99064.59
2023-01-12T00:09:02.560Z,99049.47
2023-01-12T00:11:29.408Z,99052.78
2023-01-12T00:13:55.965Z,99053.59
2023-01-12T00:16:37.906Z,99047.53
2023-01-12T00:19:12.108Z,99044.81
2023-01-12T00:22:00.138Z,99052.97
2023-01-12T00:24:29.724Z,99045.72
2023-01-12T00:26:58.072Z,99056.13
2023-01-12T00:29:25.631Z,99047.22
2023-01-12T00:31:57.503Z,99053.41
2023-01-12T00:34:25.111Z,99056.66
2023-01-12T00:36:51.856Z,99066.34
2023-01-12T00:39:18.452Z,99058.47
2023-01-12T00:42:03.997Z,99059.88
2023-01-12T00:44:49.296Z,99056.38
2023-01-12T00:47:16.895Z,99059.00
2023-01-12T00:49:43.911Z,99069.44
2023-01-12T00:52:24.859Z,99067.75
2023-01-12T00:54:55.670Z,99052.63
2023-01-12T00:57:22.157Z,99060.41
2023-01-12T00:59:48.715Z,99060.41
2023-01-12T01:02:15.209Z,99063.84
2023-01-12T01:04:41.879Z,99066.50
2023-01-12T01:07:08.381Z,99070.06
2023-01-12T01:09:34.930Z,99058.72
2023-01-12T01:12:01.572Z,99064.09
2023-01-12T01:14:28.076Z,99064.09
2023-01-12T01:16:54.589Z,99073.84
2023-01-12T01:19:21.229Z,99075.94
2023-01-12T01:21:47.658Z,99063.72
2023-01-12T01:24:14.825Z,99062.25
2023-01-12T01:26:42.265Z,99064.97
2023-01-12T01:29:09.135Z,99061.69
2023-01-12T01:31:35.931Z,99051.38
2023-01-12T01:34:02.623Z,99043.59
2023-01-12T01:36:30.102Z,99056.81
2023-01-12T01:38:56.741Z,99056.81
2023-01-12T01:41:29.747Z,99053.47
2023-01-12T01:44:03.829Z,99053.38
2023-01-12T01:46:51.910Z,99049.88
2023-01-12T01:49:56.707Z,99053.25
2023-01-12T01:52:34.618Z,99043.59
2023-01-12T01:55:12.867Z,99045.50
2023-01-12T01:57:48.805Z,99035.81
2023-01-12T02:00:15.861Z,99038.16
2023-01-12T02:02:45.726Z,99028.47
2023-01-12T02:05:20.100Z,99017.03
2023-01-12T02:07:49.117Z,99019.56
2023-01-12T02:10:17.364Z,99012.50
2023-01-12T02:13:03.602Z,99013.25
2023-01-12T02:15:58.108Z,98999.19
2023-01-12T02:18:30.863Z,99003.28
2023-01-12T02:21:20.306Z,98999.91
2023-01-12T02:24:01.298Z,99000.47
2023-01-12T02:26:46.478Z,98992.34
2023-01-12T02:29:30.908Z,99002.97
2023-01-12T02:32:07.886Z,98994.25
2023-01-12T02:35:09.779Z,98992.06
2023-01-12T02:37:43.356Z,98987.53
2023-01-12T02:40:18.062Z,98972.72
2023-01-12T02:43:15.015Z,98972.63
2023-01-12T02:45:50.098Z,98965.47
2023-01-12T02:48:21.773Z,98961.69
2023-01-12T02:50:57.813Z,98949.50
2023-01-12T02:53:30.865Z,98954.03
2023-01-12T02:55:59.814Z,98944.22
2023-01-12T02:58:29.402Z,98945.72
2023-01-12T03:00:59.110Z,98935.28
2023-01-12T03:03:26.227Z,98936.34
2023-01-12T03:05:56.111Z,98941.94
2023-01-12T03:08:27.689Z,98939.41
2023-01-12T03:11:14.079Z,98929.59
2023-01-12T03:14:05.668Z,98921.19
2023-01-12T03:16:34.934Z,98925.22
2023-01-12T03:19:14.589Z,98922.88
2023-01-12T03:21:55.278Z,98917.63
2023-01-12T03:24:30.026Z,98908.91
2023-01-12T03:27:03.681Z,98907.09
2023-01-12T03:29:30.129Z,98916.66
2023-01-12T03:31:57.071Z,98908.91
2023-01-12T03:34:23.918Z,98908.16
2023-01-12T03:37:13.958Z,98893.44
2023-01-12T03:40:06.347Z,98899.56
2023-01-12T03:43:03.502Z,98882.06
2023-01-12T03:45:30.039Z,98882.72
2023-01-12T03:48:07.483Z,98885.34
2023-01-12T03:50:58.374Z,98882.94
2023-01-12T03:53:25.552Z,98872.94
2023-01-12T03:55:57.023Z,98871.25
2023-01-12T03:58:24.998Z,98878.94
2023-01-12T04:00:52.049Z,98879.78
2023-01-12T04:03:18.622Z,98868.63
2023-01-12T04:05:45.815Z,98868.44
2023-01-12T04:08:14.916Z,98850.97
2023-01-12T04:10:41.557Z,98863.19
2023-01-12T04:13:08.071Z,98846.56
2023-01-12T04:15:37.998Z,98850.97
2023-01-12T04:18:05.357Z,98858.84
2023-01-12T04:20:31.890Z,98837.94
2023-01-12T04:22:58.671Z,98824.69
2023-01-12T04:25:25.273Z,98828.16
2023-01-12T04:27:59.065Z,98807.22
2023-01-12T04:30:27.768Z,98794.75
2023-01-12T04:32:56.033Z,98798.28
2023-01-12T04:35:24.221Z,98794.75
2023-01-12T04:37:51.544Z,98795.56
2023-01-12T04:40:19.010Z,98797.22
2023-01-12T04:43:01.770Z,98792.22
2023-01-12T04:45:33.638Z,98787.66
2023-01-12T04:48:05.630Z,98779.69
2023-01-12T04:50:32.868Z,98790.09
2023-01-12T04:53:02.494Z,98772.66
2023-01-12T04:55:29.258Z,98767.41
2023-01-12T04:57:57.083Z,98753.28
2023-01-12T05:00:24.275Z,98766.44
2023-01-12T05:02:53.699Z,98751.50
2023-01-12T05:05:20.142Z,98756.75
2023-01-12T05:08:05.256Z,98750.78
2023-01-12T05:10:31.877Z,98729.63
2023-01-12T05:12:58.338Z,98728.56
2023-01-12T05:15:24.940Z,98730.34
2023-01-12T05:17:52.176Z,98717.09
2023-01-12T05:20:18.668Z,98721.53
2023-01-12T05:22:45.220Z,98703.97
2023-01-12T05:25:11.699Z,98697.88
2023-01-12T05:27:38.199Z,98692.50
2023-01-12T05:30:05.222Z,98698.72
2023-01-12T05:32:38.345Z,98684.84
2023-01-12T05:35:06.775Z,98687.59
2023-01-12T05:37:33.990Z,98674.44
2023-01-12T05:40:00.482Z,98694.50
2023-01-12T05:42:45.585Z,98680.66
2023-01-12T05:45:12.761Z,98684.97
2023-01-12T05:47:39.354Z,98664.75
2023-01-12T05:50:06.383Z,98664.03
2023-01-12T05:52:32.851Z,98652.66
2023-01-12T05:54:59.525Z,98653.63
2023-01-12T05:57:25.984Z,98672.38
2023-01-12T05:59:52.434Z,98640.94
2023-01-12T06:02:21.517Z,98633.38
2023-01-12T06:04:48.291Z,98650.19
2023-01-12T06:07:16.093Z,98611.84
2023-01-12T06:09:42.929Z,98599.97
2023-01-12T06:12:30.000Z,98579.31
2023-01-12T06:14:56.509Z,98579.63
2023-01-12T06:17:23.031Z,98564.94
2023-01-12T06:19:49.520Z,98562.63
2023-01-12T06:22:16.075Z,98567.16
2023-01-12T06:24:42.536Z,98555.19
2023-01-12T06:27:09.046Z,98549.09
2023-01-12T06:29:35.526Z,98545.66
2023-01-12T06:32:02.103Z,98537.88
2023-01-12T06:34:34.715Z,98545.84
2023-01-12T06:37:02.693Z,98545.66
2023-01-12T06:39:42.607Z,98546.72
2023-01-12T06:42:28.493Z,98522.13
2023-01-12T06:45:00.065Z,98533.44
2023-01-12T06:47:33.682Z,98524.53
2023-01-12T06:50:00.213Z,98537.66
2023-01-12T06:52:27.521Z,98540.28
2023-01-12T06:54:54.231Z,98536.69
2023-01-12T06:57:20.745Z,98533.00
2023-01-12T06:59:47.235Z,98516.41
2023-01-12T07:02:15.832Z,98530.38
2023-01-12T07:04:42.939Z,98522.28
2023-01-12T07:07:10.760Z,98543.06
2023-01-12T07:09:37.300Z,98556.09
2023-01-12T07:12:04.772Z,98544.53
2023-01-12T07:14:31.474Z,98518.16
2023-01-12T07:16:58.033Z,98535.56
2023-01-12T07:19:24.601Z,98533.91
2023-01-12T07:21:51.105Z,98538.94
2023-01-12T07:24:17.672Z,98562.47
2023-01-12T07:26:44.246Z,98563.19
2023-01-12T07:29:13.870Z,98557.63
2023-01-12T07:31:40.410Z,98518.09
2023-01-12T07:34:06.983Z,98543.41
2023-01-12T07:36:36.519Z,98545.09
2023-01-12T07:39:03.103Z,98529.94
2023-01-12T07:41:48.141Z,98540.34
2023-01-12T07:44:14.725Z,98544.41
2023-01-12T07:46:41.318Z,98549.44
2023-01-12T07:49:07.851Z,98555.56
2023-01-12T07:51:34.629Z,98564.16
2023-01-12T07:54:01.110Z,98544.78
2023-01-12T07:56:27.625Z,98559.75
2023-01-12T07:58:54.253Z,98553.53
2023-01-12T08:01:20.801Z,98546.34
2023-01-12T08:03:47.552Z,98564.53
2023-01-12T08:06:14.200Z,98531.94
2023-01-12T08:08:41.168Z,98537.06
2023-01-12T08:11:10.103Z,98548.19
2023-01-12T08:13:38.340Z,98548.19
2023-01-12T08:16:13.155Z,98547.97
2023-01-12T08:18:49.762Z,98541.75
2023-01-12T08:21:20.722Z,98567.13
2023-01-12T08:23:54.519Z,98553.97
2023-01-12T08:26:25.191Z,98550.13
2023-01-12T08:28:56.454Z,98551.72
2023-01-12T08:31:25.156Z,98551.47
2023-01-12T08:33:53.987Z,98545.28
2023-01-12T08:36:22.019Z,98547.66
2023-01-12T08:38:48.852Z,98541.31
2023-01-12T08:41:34.067Z,98545.50
2023-01-12T08:44:02.177Z,98548.03
2023-01-12T08:46:40.123Z,98552.59
2023-01-12T08:49:11.507Z,98556.56
2023-01-12T08:51:41.451Z,98552.84
2023-01-12T08:54:10.874Z,98557.16
2023-01-12T08:56:37.691Z,98544.59
2023-01-12T08:59:04.809Z,98563.84
2023-01-12T09:01:31.827Z,98556.66
2023-01-12T09:03:59.335Z,98548.56
2023-01-12T09:06:45.882Z,98552.78
2023-01-12T09:12:07.600Z,98576.13
2023-01-12T09:14:38.530Z,98569.88
2023-01-12T09:17:06.879Z,98559.97
2023-01-12T09:19:33.848Z,98574.66
2023-01-12T09:22:00.338Z,98553.63
2023-01-12T09:24:27.482Z,98576.97
2023-01-12T09:26:53.994Z,98578.63
2023-01-12T09:29:20.525Z,98567.88
2023-01-12T09:31:47.271Z,98582.59
2023-01-12T09:34:13.984Z,98574.59
2023-01-12T09:36:41.086Z,98569.91
2023-01-12T09:39:10.389Z,98578.53
2023-01-12T09:42:02.875Z,98579.25
2023-01-12T09:45:01.910Z,98580.09
2023-01-12T09:47:39.702Z,98590.41
2023-01-12T09:50:11.161Z,98592.66
2023-01-12T09:53:00.691Z,98589.44
2023-01-12T09:55:41.853Z,98616.59
2023-01-12T09:58:42.347Z,98605.81
2023-01-12T10:01:24.064Z,98581.91
2023-01-12T10:03:55.214Z,98606.31
2023-01-12T10:06:21.713Z,98629.78
2023-01-12T10:08:51.933Z,98618.28
2023-01-12T10:11:39.874Z,98614.94
2023-01-12T10:14:27.978Z,98634.81
2023-01-12T10:17:45.931Z,98614.56
2023-01-12T10:20:39.857Z,98630.03
2023-01-12T10:23:09.423Z,98626.09
2023-01-12T10:25:44.774Z,98628.59
2023-01-12T10:28:24.539Z,98639.72
2023-01-12T10:30:53.196Z,98641.06
2023-01-12T10:33:29.205Z,98619.13
2023-01-12T10:35:58.760Z,98642.59
2023-01-12T10:38:36.124Z,98638.78
2023-01-12T10:41:10.223Z,98650.03
2023-01-12T10:43:38.027Z,98638.28
2023-01-12T10:46:14.866Z,98636.63
2023-01-12T10:48:44.640Z,98645.94
2023-01-12T10:51:34.229Z,98639.00
2023-01-12T10:54:10.768Z,98656.38
2023-01-12T10:56:54.448Z,98636.75
2023-01-12T10:59:25.422Z,98634.56
2023-01-12T11:01:53.448Z,98650.38
2023-01-12T11:04:23.562Z,98638.75
2023-01-12T11:07:05.504Z,98644.25
2023-01-12T11:09:32.396Z,98648.34
2023-01-12T11:12:23.640Z,98643.44
2023-01-12T11:14:57.818Z,98648.34
2023-01-12T11:17:44.594Z,98651.94
2023-01-12T11:20:40.163Z,98642.13
2023-01-12T11:23:29.408Z,98645.56
2023-01-12T11:25:57.032Z,98644.63
2023-01-12T11:28:42.852Z,98651.94
2023-01-12T11:31:21.654Z,98649.06
2023-01-12T11:34:21.983Z,98653.59
2023-01-12T11:36:55.870Z,98662.13
2023-01-12T11:39:28.908Z,98662.13
2023-01-12T11:42:14.116Z,98647.88
2023-01-12T11:44:52.148Z,98641.38
2023-01-12T11:47:28.578Z,98652.88
2023-01-12T11:50:05.326Z,98653.03
2023-01-12T11:52:32.635Z,98645.69
2023-01-12T11:54:59.232Z,98646.41
2023-01-12T11:57:31.378Z,98658.63
2023-01-12T12:00:06.921Z,98662.81
2023-01-12T12:02:38.440Z,98647.00
2023-01-12T12:05:29.493Z,98645.47
2023-01-12T12:08:11.268Z,98651.44
2023-01-12T12:10:57.962Z,98641.00
2023-01-12T12:13:52.548Z,98650.59
2023-01-12T12:16:51.326Z,98647.94
2023-01-12T12:19:43.214Z,98636.47
2023-01-12T12:22:37.006Z,98644.97
2023-01-12T12:25:28.757Z,98643.16
2023-01-12T12:28:07.473Z,98634.19
2023-01-12T12:30:40.122Z,98637.63
2023-01-12T12:33:40.093Z,98630.44
2023-01-12T12:36:30.526Z,98627.69
2023-01-12T12:39:09.367Z,98630.69
2023-01-12T12:42:12.766Z,98646.63
2023-01-12T12:45:03.701Z,98642.31
2023-01-12T12:47:51.049Z,98648.66
2023-01-12T12:50:22.558Z,98637.75
2023-01-12T12:53:01.614Z,98653.56
2023-01-12T12:55:28.133Z,98639.41
2023-01-12T12:58:02.948Z,98642.31
2023-01-12T13:00:42.412Z,98635.09
2023-01-12T13:03:09.865Z,98632.22
2023-01-12T13:05:40.883Z,98638.47
2023-01-12T13:08:37.121Z,98638.59
2023-01-12T13:11:03.849Z,98630.28
2023-01-12T13:13:36.584Z,98641.81
2023-01-12T13:16:18.201Z,98639.16
2023-01-12T13:18:50.516Z,98623.47
2023-01-12T13:21:56.127Z,98625.28
2023-01-12T13:24:39.645Z,98626.09
2023-01-12T13:27:43.702Z,98621.91
2023-01-12T13:30:28.501Z,98630.56
2023-01-12T13:32:54.968Z,98617.09
2023-01-12T13:35:33.178Z,98620.72
2023-01-12T13:38:27.570Z,98618.31
2023-01-12T13:41:13.897Z,98626.84
2023-01-12T13:43:43.043Z,98632.00
2023-01-12T13:46:21.879Z,98624.19
2023-01-12T13:48:54.273Z,98625.00
2023-01-12T13:51:22.968Z,98625.63
2023-01-12T13:54:04.154Z,98617.84
2023-01-12T13:56:31.571Z,98620.34
2023-01-12T13:59:01.792Z,98620.34
2023-01-12T14:01:33.485Z,98630.06
2023-01-12T14:04:16.807Z,98624.91
2023-01-12T14:06:56.699Z,98627.16
2023-01-12T14:09:29.222Z,98634.34
2023-01-12T14:12:28.023Z,98626.72
2023-01-12T14:15:50.452Z,98628.63
2023-01-12T14:18:22.268Z,98626.44
2023-01-12T14:20:50.835Z,98614.47
2023-01-12T14:23:33.623Z,98614.47
2023-01-12T14:26:25.654Z,98615.69
2023-01-12T14:28:52.844Z,98620.59
2023-01-12T14:31:31.653Z,98627.91
2023-01-12T14:34:02.431Z,98629.59
2023-01-12T14:36:35.673Z,98623.59
2023-01-12T14:39:09.008Z,98628.03
2023-01-12T14:41:54.021Z,98634.00
2023-01-12T14:44:42.869Z,98628.84
2023-01-12T14:47:10.731Z,98626.09
2023-01-12T14:49:38.225Z,98618.31
2023-01-12T14:52:15.812Z,98609.69
2023-01-12T14:54:42.579Z,98615.69
2023-01-12T14:57:34.613Z,98599.28
2023-01-12T15:00:02.159Z,98611.38
2023-01-12T15:02:30.963Z,98600.69
2023-01-12T15:05:00.317Z,98608.03
2023-01-12T15:07:32.007Z,98610.56
2023-01-12T15:10:01.766Z,98605.28
2023-01-12T15:12:28.067Z,98607.66
2023-01-12T15:15:20.383Z,98616.88
2023-01-12T15:18:06.660Z,98600.59
2023-01-12T15:20:54.882Z,98609.31
2023-01-12T15:23:52.390Z,98607.75
2023-01-12T15:26:20.200Z,98596.97
2023-01-12T15:28:48.207Z,98603.22
2023-01-12T15:31:32.308Z,98593.03
2023-01-12T15:33:58.902Z,98595.31
2023-01-12T15:36:25.449Z,98595.44
2023-01-12T15:38:52.253Z,98593.66
2023-01-12T15:41:46.551Z,98586.81
2023-01-12T15:44:18.398Z,98591.94
2023-01-12T15:46:44.901Z,98600.69
2023-01-12T15:49:13.332Z,98591.94
2023-01-12T15:51:40.699Z,98598.91
2023-01-12T15:54:09.976Z,98574.34
2023-01-12T15:56:36.488Z,98594.59
2023-01-12T15:59:03.032Z,98597.50
2023-01-12T16:01:37.569Z,98603.84
2023-01-12T16:04:40.339Z,98586.34
2023-01-12T16:06:52.288Z,98588.84
2023-01-12T16:09:19.074Z,98589.81
2023-01-12T16:11:45.633Z,98596.88
2023-01-12T16:14:13.378Z,98580.25
2023-01-12T16:16:40.185Z,98593.53
2023-01-12T16:19:08.341Z,98581.19
2023-01-12T16:21:35.707Z,98576.63
2023-01-12T16:24:02.319Z,98576.63
2023-01-12T16:26:30.115Z,98579.41
2023-01-12T16:28:57.646Z,98589.81
2023-01-12T16:31:24.977Z,98581.06
2023-01-12T16:33:51.533Z,98581.19
2023-01-12T16:36:18.006Z,98580.47
2023-01-12T16:38:44.481Z,98581.56
2023-01-12T16:41:14.862Z,98567.66
2023-01-12T16:43:41.478Z,98570.19
2023-01-12T16:46:08.168Z,98566.59
2023-01-12T16:48:35.260Z,98561.34
2023-01-12T16:51:01.666Z,98558.69
2023-01-12T16:53:28.371Z,98571.88
2023-01-12T16:55:54.904Z,98563.97
2023-01-12T16:58:21.323Z,98561.44
2023-01-12T17:00:48.041Z,98552.44
2023-01-12T17:03:14.764Z,98557.72
2023-01-12T17:05:42.346Z,98552.44
2023-01-12T17:08:09.199Z,98562.03
2023-01-12T17:10:36.573Z,98563.00
2023-01-12T17:13:03.117Z,98556.88
2023-01-12T17:15:29.983Z,98564.66
2023-01-12T17:17:56.597Z,98554.97
2023-01-12T17:20:23.105Z,98557.72
2023-01-12T17:22:50.672Z,98559.38
2023-01-12T17:25:17.311Z,98554.81
2023-01-12T17:27:43.768Z,98565.38
2023-01-12T17:30:11.225Z,98555.66
2023-01-12T17:32:37.815Z,98549.53
2023-01-12T17:35:07.181Z,98543.56
2023-01-12T17:37:33.727Z,98551.47
2023-01-12T17:40:00.436Z,98551.47
2023-01-12T17:42:45.307Z,98551.59
2023-01-12T17:45:12.243Z,98548.84
2023-01-12T17:47:38.704Z,98544.41
2023-01-12T17:50:05.609Z,98551.47
2023-01-12T17:52:32.089Z,98541.06
2023-01-12T17:54:58.588Z,98550.78
2023-01-12T17:57:26.096Z,98547.41
2023-01-12T17:59:52.633Z,98548.28
2023-01-12T18:02:19.252Z,98544.91
2023-01-12T18:04:46.200Z,98546.72
2023-01-12T18:07:12.615Z,98546.72
2023-01-12T18:09:39.458Z,98536.31
2023-01-12T18:12:06.095Z,98526.56
2023-01-12T18:14:32.485Z,98534.59
2023-01-12T18:16:58.920Z,98517.97
2023-01-12T18:19:25.377Z,98540.97
2023-01-12T18:21:51.822Z,98522.66
2023-01-12T18:24:18.342Z,98541.22
2023-01-12T18:26:44.785Z,98552.47
2023-01-12T18:29:11.331Z,98543.59
2023-01-12T18:31:37.890Z,98546.25
2023-01-12T18:34:05.857Z,98540.03
2023-01-12T18:36:39.396Z,98544.34
2023-01-12T18:39:08.941Z,98551.28
2023-01-12T18:44:06.947Z,98572.13
2023-01-12T18:46:53.489Z,98568.28
2023-01-12T18:49:24.006Z,98564.66
2023-01-12T18:52:09.148Z,98568.72
2023-01-12T18:54:48.248Z,98560.56
2023-01-12T18:57:19.197Z,98558.63
2023-01-12T18:59:47.237Z,98573.63
2023-01-12T19:02:14.842Z,98576.28
2023-01-12T19:04:50.528Z,98579.72
2023-01-12T19:07:27.964Z,98554.44
2023-01-12T19:09:54.765Z,98564.44
2023-01-12T19:12:21.576Z,98558.31
2023-01-12T19:15:06.790Z,98558.41
2023-01-12T19:17:33.508Z,98549.81
2023-01-12T19:20:02.448Z,98551.59
2023-01-12T19:22:47.439Z,98561.34
2023-01-12T19:25:34.597Z,98544.78
2023-01-12T19:28:19.770Z,98545.63
2023-01-12T19:30:47.112Z,98552.00
2023-01-12T19:33:14.671Z,98546.00
2023-01-12T19:35:42.539Z,98552.94
2023-01-12T19:38:09.784Z,98554.63
2023-01-12T19:40:45.542Z,98546.84
2023-01-12T19:43:14.809Z,98542.38
2023-01-12T19:45:43.717Z,98549.38
2023-01-12T19:48:11.872Z,98553.78
2023-01-12T19:50:40.223Z,98546.00
2023-01-12T19:53:09.647Z,98547.66
2023-01-12T19:55:36.445Z,98546.72
2023-01-12T19:58:08.437Z,98542.38
2023-01-12T20:00:37.746Z,98540.59
2023-01-12T20:03:04.337Z,98543.25
2023-01-12T20:05:30.839Z,98542.28
2023-01-12T20:07:57.935Z,98534.34
2023-01-12T20:10:24.738Z,98535.22
2023-01-12T20:12:52.343Z,98542.16
2023-01-12T20:15:20.676Z,98542.16
2023-01-12T20:17:48.740Z,98553.66
2023-01-12T20:20:16.351Z,98540.47
2023-01-12T20:22:43.430Z,98557.13
2023-01-12T20:25:10.472Z,98572.94
2023-01-12T20:27:38.011Z,98546.00
2023-01-12T20:30:06.429Z,98539.88
2023-01-12T20:32:38.007Z,98532.13
2023-01-12T20:35:05.958Z,98536.41
2023-01-12T20:37:33.525Z,98527.53
2023-01-12T20:40:00.155Z,98522.41
2023-01-12T20:42:27.277Z,98523.25
2023-01-12T20:44:53.771Z,98526.84
2023-01-12T20:47:20.325Z,98510.06
2023-01-12T20:49:47.048Z,98514.38
2023-01-12T20:52:14.099Z,98503.81
2023-01-12T20:54:40.601Z,98507.53
2023-01-12T20:57:10.183Z,98510.19
2023-01-12T20:59:37.617Z,98511.84
2023-01-12T21:02:04.922Z,98519.88
2023-01-12T21:04:32.468Z,98510.19
2023-01-12T21:06:59.081Z,98518.22
2023-01-12T21:09:25.659Z,98523.47
2023-01-12T21:11:52.565Z,98507.53
2023-01-12T21:14:19.561Z,98504.78
2023-01-12T21:16:46.601Z,98509.09
2023-01-12T21:19:13.460Z,98504.66
2023-01-12T21:21:40.012Z,98504.41
2023-01-12T21:24:06.792Z,98506.09
2023-01-12T21:26:33.355Z,98513.03
2023-01-12T21:29:00.450Z,98506.09
2023-01-12T21:31:27.511Z,98505.81
2023-01-12T21:33:54.072Z,98511.09
2023-01-12T21:36:20.674Z,98518.88
2023-01-12T21:38:56.398Z,98499.44
2023-01-12T21:41:22.994Z,98513.38
2023-01-12T21:43:53.251Z,98514.22
2023-01-12T21:46:22.311Z,98509.88
2023-01-12T21:48:48.850Z,98505.31
2023-01-12T21:51:17.357Z,98512.28
2023-01-12T21:53:43.838Z,98484.25
2023-01-12T21:56:12.546Z,98500.88
2023-01-12T21:58:39.424Z,98497.41
2023-01-12T22:01:11.412Z,98501.03
2023-01-12T22:03:38.310Z,98498.13
2023-01-12T22:06:10.625Z,98479.53
2023-01-12T22:08:38.972Z,98497.19
2023-01-12T22:11:14.209Z,98485.78
2023-01-12T22:13:41.307Z,98481.47
2023-01-12T22:16:13.723Z,98479.22
2023-01-12T22:18:44.899Z,98480.06
2023-01-12T22:21:12.745Z,98481.00
2023-01-12T22:23:39.902Z,98469.50
2023-01-12T22:26:09.443Z,98472.28
2023-01-12T22:28:38.050Z,98475.72
2023-01-12T22:31:14.190Z,98485.56
2023-01-12T22:33:44.712Z,98476.81
2023-01-12T22:36:11.426Z,98448.66
2023-01-12T22:38:38.015Z,98467.13
2023-01-12T22:41:09.361Z,98462.81
2023-01-12T22:43:42.966Z,98453.09
2023-01-12T22:46:24.291Z,98455.88
2023-01-12T22:48:56.014Z,98460.88
2023-01-12T22:51:27.242Z,98462.53
2023-01-12T22:53:55.539Z,98470.44
2023-01-12T22:56:22.534Z,98448.53
2023-01-12T22:58:51.742Z,98435.50
2023-01-12T23:01:19.486Z,98464.38
2023-01-12T23:03:46.126Z,98436.19
2023-01-12T23:06:14.819Z,98452.53
2023-01-12T23:08:43.433Z,98461.41
2023-01-12T23:11:19.147Z,98460.94
2023-01-12T23:13:46.529Z,98450.41
2023-01-12T23:16:15.568Z,98451.63
2023-01-12T23:18:44.493Z,98438.69
2023-01-12T23:21:19.998Z,98452.38
2023-01-12T23:23:52.866Z,98461.97
2023-01-12T23:26:22.705Z,98461.22
2023-01-12T23:28:52.696Z,98459.44
2023-01-12T23:31:22.095Z,98464.72
2023-01-12T23:33:49.277Z,98461.22
2023-01-12T23:36:22.244Z,98472.88
2023-01-12T23:38:53.575Z,98468.56
2023-01-12T23:41:23.170Z,98468.44
2023-01-12T23:43:51.041Z,98461.50
2023-01-12T23:46:21.912Z,98457.78
2023-01-12T23:48:49.252Z,98460.28
2023-01-12T23:51:15.839Z,98476.09
2023-01-12T23:53:42.326Z,98448.91
2023-01-12T23:56:14.246Z,98457.66
2023-01-12T23:58:41.144Z,98470.69
